Terminal Aerodrome Forecast
Issued by NWS

Home | Current Version | Previous Version | Text Only | Print | Product List | Glossary On
Versions: 1 2 3 4 5 6 7 8 9 10 11 12
667
FTUS42 KMLB 170536
TAFISM
TAF
KISM 170536Z 1706/1806 36004KT P6SM MIFG SCT250
      TEMPO 1710/1713 5SM BR
     FM171400 31005KT P6SM SCT040 SCT250
     FM171900 31012KT P6SM SKC=

USA.gov is the U.S. government's official web portal to all federal, state and local government web resources and services.